createdAt,value
2023-04-03T00:01:59.210Z,100.00
2023-04-03T00:06:00.954Z,100.00
2023-04-03T00:10:02.525Z,100.00
2023-04-03T00:14:04.026Z,100.00
2023-04-03T00:18:06.199Z,100.00
2023-04-03T00:22:07.752Z,100.00
2023-04-03T00:26:09.261Z,100.00
2023-04-03T00:30:14.068Z,100.00
2023-04-03T00:34:15.681Z,100.00
2023-04-03T00:38:17.672Z,100.00
2023-04-03T00:42:19.154Z,100.00
2023-04-03T00:46:20.620Z,100.00
2023-04-03T00:50:22.357Z,100.00
2023-04-03T00:54:23.872Z,100.00
2023-04-03T00:58:38.387Z,100.00
2023-04-03T01:02:41.914Z,100.00
2023-04-03T01:06:43.462Z,100.00
2023-04-03T01:10:44.910Z,100.00
2023-04-03T01:14:47.264Z,100.00
2023-04-03T01:18:49.118Z,100.00
2023-04-03T01:23:09.316Z,100.00
2023-04-03T01:27:13.016Z,100.00
2023-04-03T01:31:20.619Z,100.00
2023-04-03T01:35:22.326Z,100.00
2023-04-03T01:39:23.962Z,100.00
2023-04-03T01:47:37.834Z,100.00
2023-04-03T01:51:39.286Z,100.00
2023-04-03T01:55:40.785Z,100.00
2023-04-03T01:59:42.220Z,100.00
2023-04-03T02:03:43.709Z,100.00
2023-04-03T02:07:45.405Z,100.00
2023-04-03T02:11:46.862Z,100.00
2023-04-03T02:15:48.667Z,100.00
2023-04-03T02:19:50.365Z,100.00
2023-04-03T02:23:51.858Z,100.00
2023-04-03T02:27:53.300Z,100.00
2023-04-03T02:31:54.755Z,100.00
2023-04-03T02:35:57.667Z,100.00
2023-04-03T02:39:59.285Z,100.00
2023-04-03T02:44:00.774Z,100.00
2023-04-03T02:48:02.257Z,100.00
2023-04-03T02:52:03.845Z,100.00
2023-04-03T02:56:05.434Z,100.00
2023-04-03T03:00:07.622Z,100.00
2023-04-03T03:04:09.159Z,100.00
2023-04-03T03:08:10.658Z,100.00
2023-04-03T03:12:12.069Z,100.00
2023-04-03T03:16:13.589Z,100.00
2023-04-03T03:20:16.098Z,100.00
2023-04-03T03:24:17.613Z,100.00
2023-04-03T03:28:19.026Z,100.00
2023-04-03T03:32:20.719Z,100.00
2023-04-03T03:36:22.223Z,100.00
2023-04-03T03:40:23.711Z,100.00
2023-04-03T03:44:25.224Z,100.00
2023-04-03T03:48:26.760Z,100.00
2023-04-03T03:52:28.302Z,100.00
2023-04-03T03:56:29.730Z,100.00
2023-04-03T04:00:31.490Z,100.00
2023-04-03T04:04:32.956Z,100.00
2023-04-03T04:08:34.368Z,100.00
2023-04-03T04:12:36.542Z,100.00
2023-04-03T04:16:38.031Z,100.00
2023-04-03T04:20:39.585Z,100.00
2023-04-03T04:24:41.060Z,100.00
2023-04-03T04:28:42.521Z,100.00
2023-04-03T04:32:44.055Z,100.00
2023-04-03T04:36:45.754Z,100.00
2023-04-03T04:40:48.708Z,100.00
2023-04-03T04:44:50.322Z,100.00
2023-04-03T04:48:51.780Z,100.00
2023-04-03T04:52:53.264Z,100.00
2023-04-03T04:56:54.787Z,100.00
2023-04-03T05:01:01.093Z,100.00
2023-04-03T05:05:04.924Z,100.00
2023-04-03T05:09:06.979Z,100.00
2023-04-03T05:13:08.429Z,100.00
2023-04-03T05:17:09.979Z,100.00
2023-04-03T05:21:11.437Z,100.00
2023-04-03T05:25:12.931Z,100.00
2023-04-03T05:29:14.414Z,100.00
2023-04-03T05:33:15.927Z,100.00
2023-04-03T05:37:18.106Z,100.00
2023-04-03T05:41:21.616Z,100.00
2023-04-03T05:45:23.245Z,100.00
2023-04-03T05:49:24.766Z,100.00
2023-04-03T05:53:30.427Z,100.00
2023-04-03T05:57:32.018Z,100.00
2023-04-03T06:01:33.486Z,100.00
2023-04-03T06:05:34.948Z,100.00
2023-04-03T06:09:36.455Z,100.00
2023-04-03T06:13:38.148Z,100.00
2023-04-03T06:17:39.605Z,100.00
2023-04-03T06:21:41.107Z,100.00
2023-04-03T06:25:43.014Z,100.00
2023-04-03T06:29:45.959Z,100.00
2023-04-03T06:33:47.418Z,100.00
2023-04-03T06:37:48.843Z,100.00
2023-04-03T06:41:51.773Z,100.00
2023-04-03T06:45:54.381Z,100.00
2023-04-03T06:49:55.787Z,97.90
2023-04-03T06:53:59.535Z,95.93
2023-04-03T06:58:01.499Z,93.71
2023-04-03T07:02:04.011Z,89.91
2023-04-03T07:06:07.911Z,87.06
2023-04-03T07:10:10.937Z,84.16
2023-04-03T07:14:12.531Z,80.41
2023-04-03T07:18:13.991Z,77.46
2023-04-03T07:22:15.443Z,76.00
2023-04-03T07:26:17.019Z,76.25
2023-04-03T07:30:18.630Z,73.64
2023-04-03T07:34:20.122Z,68.98
2023-04-03T07:38:21.695Z,68.46
2023-04-03T07:42:23.125Z,67.42
2023-04-03T07:46:24.872Z,65.79
2023-04-03T07:50:27.168Z,63.12
2023-04-03T07:54:28.595Z,60.59
2023-04-03T07:58:30.815Z,60.90
2023-04-03T08:02:32.927Z,57.40
2023-04-03T08:06:45.589Z,58.03
2023-04-03T08:10:53.295Z,59.95
2023-04-03T08:14:54.936Z,57.63
2023-04-03T08:18:56.726Z,58.49
2023-04-03T08:22:58.209Z,59.79
2023-04-03T08:26:59.804Z,60.34
2023-04-03T08:31:07.069Z,60.55
2023-04-03T08:35:09.082Z,60.28
2023-04-03T08:39:11.651Z,62.33
2023-04-03T08:43:31.388Z,59.28
2023-04-03T08:47:47.145Z,58.51
2023-04-03T08:51:51.720Z,56.85
2023-04-03T08:55:55.080Z,56.85
2023-04-03T08:59:59.781Z,54.69
2023-04-03T09:04:02.897Z,54.37
2023-04-03T09:08:29.404Z,54.58
2023-04-03T09:12:38.661Z,55.48
2023-04-03T09:17:04.192Z,55.35
2023-04-03T09:21:13.282Z,54.76
2023-04-03T09:25:34.141Z,54.77
2023-04-03T09:29:41.487Z,54.81
2023-04-03T09:33:43.281Z,56.02
2023-04-03T09:37:50.703Z,52.86
2023-04-03T09:42:04.945Z,49.67
2023-04-03T09:46:30.259Z,49.69
2023-04-03T09:50:33.707Z,49.42
2023-04-03T09:54:38.359Z,49.53
2023-04-03T09:58:50.279Z,47.35
2023-04-03T10:02:57.032Z,48.41
2023-04-03T10:07:01.453Z,48.54
2023-04-03T10:11:14.898Z,46.16
2023-04-03T10:15:19.751Z,45.54
2023-04-03T10:19:42.519Z,46.27
2023-04-03T10:23:49.527Z,46.55
2023-04-03T10:28:12.899Z,48.17
2023-04-03T10:32:17.691Z,47.43
2023-04-03T10:36:34.811Z,48.28
2023-04-03T10:40:41.476Z,48.39
2023-04-03T10:45:10.817Z,48.48
2023-04-03T10:49:30.704Z,48.56
2023-04-03T10:54:00.332Z,49.38
2023-04-03T10:58:03.906Z,47.87
2023-04-03T11:02:16.560Z,49.49
2023-04-03T11:06:21.026Z,48.42
2023-04-03T11:10:51.797Z,49.25
2023-04-03T11:14:56.180Z,49.61
2023-04-03T11:19:04.186Z,49.23
2023-04-03T11:23:20.306Z,47.98
2023-04-03T11:27:25.215Z,47.57
2023-04-03T11:31:39.045Z,48.66
2023-04-03T11:35:49.633Z,49.47
2023-04-03T11:39:59.525Z,49.53
2023-04-03T11:44:04.910Z,48.69
2023-04-03T11:48:26.359Z,48.82
2023-04-03T11:52:42.308Z,48.66
2023-04-03T11:56:45.628Z,49.09
2023-04-03T12:00:56.210Z,50.71
2023-04-03T12:05:28.606Z,50.31
2023-04-03T12:09:35.132Z,50.58
2023-04-03T12:13:37.688Z,50.46
2023-04-03T12:17:39.336Z,49.26
2023-04-03T12:22:01.188Z,49.11
2023-04-03T12:26:05.910Z,49.32
2023-04-03T12:30:19.975Z,51.68
2023-04-03T12:34:42.094Z,52.06
2023-04-03T12:38:46.608Z,50.71
2023-04-03T12:43:15.940Z,49.88
2023-04-03T12:47:34.075Z,49.47
2023-04-03T12:51:41.328Z,49.60
2023-04-03T12:55:42.792Z,49.64
2023-04-03T12:59:46.610Z,51.49
2023-04-03T13:03:58.259Z,52.54
2023-04-03T13:08:04.087Z,55.45
2023-04-03T13:12:15.055Z,49.01
2023-04-03T13:16:18.136Z,48.25
2023-04-03T13:20:26.751Z,49.58
2023-04-03T13:24:31.141Z,48.41
2023-04-03T13:28:34.217Z,47.94
2023-04-03T13:32:35.834Z,47.96
2023-04-03T13:36:41.435Z,47.48
2023-04-03T13:40:55.898Z,48.54
2023-04-03T13:45:21.930Z,49.55
2023-04-03T13:49:23.548Z,48.95
2023-04-03T13:53:26.087Z,50.41
2023-04-03T13:57:28.300Z,48.98
2023-04-03T14:02:05.042Z,49.70
2023-04-03T14:06:09.349Z,50.38
2023-04-03T14:10:10.801Z,51.13
2023-04-03T14:14:19.185Z,51.31
2023-04-03T14:18:21.632Z,51.71
2023-04-03T14:22:27.673Z,51.96
2023-04-03T14:26:31.196Z,52.26
2023-04-03T14:30:34.442Z,52.74
2023-04-03T14:34:35.933Z,51.67
2023-04-03T14:38:37.429Z,51.90
2023-04-03T14:42:38.900Z,49.60
2023-04-03T14:51:04.438Z,47.63
2023-04-03T14:55:07.427Z,43.22
2023-04-03T14:59:12.354Z,40.77
2023-04-03T15:03:16.321Z,42.33
2023-04-03T15:07:17.900Z,43.83
2023-04-03T15:11:19.371Z,46.08
2023-04-03T15:15:23.109Z,47.48
2023-04-03T15:19:24.662Z,49.76
2023-04-03T15:23:26.940Z,51.21
2023-04-03T15:27:29.216Z,52.30
2023-04-03T15:31:30.953Z,53.51
2023-04-03T15:35:32.662Z,55.63
2023-04-03T15:39:34.206Z,56.68
2023-04-03T15:43:36.110Z,57.04
2023-04-03T15:47:38.422Z,58.79
2023-04-03T15:51:39.864Z,61.09
2023-04-03T15:55:42.334Z,61.11
2023-04-03T15:59:43.789Z,61.56
2023-04-03T16:03:46.362Z,61.49
2023-04-03T16:07:48.390Z,64.52
2023-04-03T16:11:49.847Z,64.96
2023-04-03T16:15:51.368Z,62.95
2023-04-03T16:19:53.660Z,63.46
2023-04-03T16:23:58.063Z,62.96
2023-04-03T16:27:59.563Z,65.07
2023-04-03T16:32:01.149Z,62.50
2023-04-03T16:36:02.674Z,62.95
2023-04-03T16:40:06.027Z,58.63
2023-04-03T16:44:08.537Z,54.66
2023-04-03T16:48:10.211Z,54.91
2023-04-03T16:52:11.956Z,56.36
2023-04-03T16:56:13.397Z,58.52
2023-04-03T17:00:16.059Z,58.89
2023-04-03T17:04:17.735Z,58.02
2023-04-03T17:08:19.294Z,59.05
2023-04-03T17:12:22.180Z,60.53
2023-04-03T17:16:24.956Z,62.39
2023-04-03T17:20:26.636Z,64.69
2023-04-03T17:24:28.771Z,65.47
2023-04-03T17:28:30.555Z,66.26
2023-04-03T17:32:32.077Z,67.40
2023-04-03T17:36:34.290Z,67.96
2023-04-03T17:40:35.877Z,69.29
2023-04-03T17:44:37.382Z,68.02
2023-04-03T17:48:41.321Z,68.91
2023-04-03T17:52:43.243Z,70.52
2023-04-03T17:56:48.105Z,70.55
2023-04-03T18:00:49.939Z,70.47
2023-04-03T18:04:53.106Z,71.36
2023-04-03T18:08:58.798Z,72.37
2023-04-03T18:13:00.261Z,73.01
2023-04-03T18:17:01.782Z,74.74
2023-04-03T18:21:04.064Z,74.68
2023-04-03T18:25:05.964Z,76.42
2023-04-03T18:29:09.166Z,77.57
2023-04-03T18:33:10.803Z,78.82
2023-04-03T18:37:12.616Z,79.04
2023-04-03T18:41:14.892Z,79.64
2023-04-03T18:45:20.376Z,78.75
2023-04-03T18:49:21.990Z,78.77
2023-04-03T18:53:23.501Z,78.86
2023-04-03T18:57:26.632Z,79.18
2023-04-03T19:01:28.360Z,80.82
2023-04-03T19:05:30.243Z,82.29
2023-04-03T19:09:33.029Z,81.90
2023-04-03T19:13:35.416Z,82.99
2023-04-03T19:17:37.026Z,83.74
2023-04-03T19:21:41.299Z,83.88
2023-04-03T19:25:43.333Z,85.62
2023-04-03T19:29:45.137Z,85.74
2023-04-03T19:33:47.537Z,88.84
2023-04-03T19:37:50.997Z,90.79
2023-04-03T19:41:52.526Z,92.84
2023-04-03T19:45:57.263Z,94.19
2023-04-03T19:49:58.758Z,95.36
2023-04-03T19:54:00.393Z,96.25
2023-04-03T19:58:02.441Z,97.39
2023-04-03T20:02:03.944Z,97.49
2023-04-03T20:06:05.639Z,98.28
2023-04-03T20:10:07.381Z,98.63
2023-04-03T20:14:08.944Z,99.86
2023-04-03T20:18:17.692Z,100.00
2023-04-03T20:22:19.143Z,100.00
2023-04-03T20:26:24.456Z,99.62
2023-04-03T20:30:26.332Z,100.00
2023-04-03T20:34:27.817Z,100.00
2023-04-03T20:38:29.552Z,99.79
2023-04-03T20:42:31.024Z,98.59
2023-04-03T20:46:49.025Z,98.95
2023-04-03T20:50:53.459Z,98.58
2023-04-03T20:54:55.284Z,99.15
2023-04-03T20:58:58.474Z,99.84
2023-04-03T21:03:01.373Z,100.00
2023-04-03T21:07:41.310Z,98.54
2023-04-03T21:12:20.608Z,97.46
2023-04-03T21:16:22.005Z,99.62
2023-04-03T21:20:23.554Z,99.73
2023-04-03T21:24:25.310Z,99.64
2023-04-03T21:28:27.164Z,98.97
2023-04-03T21:32:30.552Z,99.63
2023-04-03T21:36:41.251Z,98.79
2023-04-03T21:40:46.553Z,100.00
2023-04-03T21:44:49.152Z,100.00
2023-04-03T21:48:51.639Z,100.00
2023-04-03T21:52:54.011Z,99.69
2023-04-03T21:56:55.500Z,99.57
2023-04-03T22:00:57.110Z,100.00
2023-04-03T22:04:59.078Z,100.00
2023-04-03T22:09:00.620Z,100.00
2023-04-03T22:13:02.178Z,100.00
2023-04-03T22:17:04.135Z,99.94
2023-04-03T22:21:08.261Z,99.68
2023-04-03T22:25:10.280Z,99.99
2023-04-03T22:29:13.167Z,98.86
2023-04-03T22:33:14.688Z,99.05
2023-04-03T22:37:16.215Z,99.57
2023-04-03T22:41:18.056Z,99.99
2023-04-03T22:45:19.748Z,99.64
2023-04-03T22:49:22.862Z,100.00
2023-04-03T22:53:24.407Z,100.00
2023-04-03T22:57:25.894Z,100.00
2023-04-03T23:01:27.529Z,100.00
2023-04-03T23:05:29.453Z,100.00
2023-04-03T23:09:31.809Z,100.00
2023-04-03T23:13:33.295Z,100.00
2023-04-03T23:17:38.286Z,100.00
2023-04-03T23:21:39.776Z,100.00
2023-04-03T23:25:41.446Z,100.00
2023-04-03T23:29:43.409Z,100.00
2023-04-03T23:33:44.953Z,100.00
2023-04-03T23:37:46.556Z,100.00
2023-04-03T23:41:49.028Z,100.00
2023-04-03T23:45:50.700Z,100.00
2023-04-03T23:49:52.183Z,100.00
2023-04-03T23:53:53.859Z,100.00
2023-04-03T23:57:55.417Z,100.00
